Time;durP1;ratioP1;P1;durP2;ratioP2;P2;SDS_P1;SDS_P2;PMS_P1;PMS_P2;Temp;Humidity;BMP_temperature;BMP_pressure;BME280_temperature;BME280_humidity;BME280_pressure;Samples;Min_cycle;Max_cycle;Signal;HPM_P1;HPM_P2
2022/08/24 00:02:25;;;;;;;7.00;5.53;;;;;;;22.11;58.70;100428.56;5038062;28;20965;-71
2022/08/24 00:04:52;;;;;;;6.10;4.80;;;;;;;22.10;58.61;100427.69;5028943;28;20570;-70
2022/08/24 00:07:19;;;;;;;5.87;5.00;;;;;;;22.03;59.08;100429.28;5035073;28;20836;-72
2022/08/24 00:09:47;;;;;;;6.80;5.10;;;;;;;22.00;59.10;100435.94;5038304;28;20485;-71
2022/08/24 00:12:16;;;;;;;6.03;5.43;;;;;;;21.96;59.15;100431.72;5039915;28;20463;-71
2022/08/24 00:14:42;;;;;;;5.77;5.00;;;;;;;21.88;59.61;100436.19;5034727;28;20555;-70
2022/08/24 00:17:09;;;;;;;6.13;5.50;;;;;;;21.82;59.87;100437.59;5034360;28;20460;-71
2022/08/24 00:19:36;;;;;;;7.03;5.50;;;;;;;21.80;60.50;100432.28;5025963;28;20451;-70
2022/08/24 00:22:02;;;;;;;7.00;5.23;;;;;;;21.76;60.32;100436.31;5034771;28;20459;-69
2022/08/24 00:24:29;;;;;;;9.67;5.00;;;;;;;21.74;60.91;100432.84;5033441;28;21721;-70
2022/08/24 00:26:56;;;;;;;7.77;5.20;;;;;;;21.78;60.93;100434.28;5033870;28;20469;-70
2022/08/24 00:29:24;;;;;;;6.73;4.90;;;;;;;21.78;60.19;100428.81;5034098;28;20461;-70
2022/08/24 00:31:50;;;;;;;6.10;5.40;;;;;;;21.78;60.65;100438.91;5035095;28;20457;-70
2022/08/24 00:34:17;;;;;;;6.63;5.40;;;;;;;21.71;61.21;100435.88;5033351;28;20845;-69
2022/08/24 00:36:44;;;;;;;6.70;5.03;;;;;;;21.73;60.80;100436.59;5033635;28;20460;-70
2022/08/24 00:39:12;;;;;;;5.83;5.03;;;;;;;21.79;61.09;100437.91;5033892;28;20460;-70
2022/08/24 00:41:42;;;;;;;6.00;5.50;;;;;;;21.64;61.75;100446.53;5033836;28;20547;-71
2022/08/24 00:44:09;;;;;;;5.57;5.07;;;;;;;21.63;61.12;100443.91;5034180;28;20535;-71
2022/08/24 00:46:44;;;;;;;5.00;4.60;;;;;;;21.70;61.66;100436.00;5033830;28;20950;-70
2022/08/24 00:49:18;;;;;;;5.13;4.73;;;;;;;21.60;61.77;100447.81;5031637;28;20502;-69
2022/08/24 00:51:54;;;;;;;5.63;4.73;;;;;;;21.58;61.83;100446.22;5033005;28;20459;-70
2022/08/24 00:54:22;;;;;;;5.23;4.73;;;;;;;21.57;62.88;100438.97;5032229;28;20557;-70
2022/08/24 00:56:54;;;;;;;5.20;4.80;;;;;;;21.54;63.54;100447.50;5034163;28;21029;-70
2022/08/24 00:59:23;;;;;;;6.33;5.00;;;;;;;21.47;63.69;100438.97;5033188;28;20817;-71
2022/08/24 01:01:53;;;;;;;5.73;5.23;;;;;;;21.38;63.98;100440.63;5034160;28;20459;-71
2022/08/24 01:04:27;;;;;;;5.80;5.20;;;;;;;21.44;63.46;100444.72;5032406;28;20978;-70
2022/08/24 01:06:54;;;;;;;6.00;5.10;;;;;;;21.39;63.49;100441.47;5033730;28;20462;-70
2022/08/24 01:09:22;;;;;;;5.60;5.10;;;;;;;21.45;63.03;100444.56;5034131;28;20453;-71
2022/08/24 01:11:49;;;;;;;5.53;4.93;;;;;;;21.40;63.95;100446.88;5033621;28;20463;-70
2022/08/24 01:14:16;;;;;;;7.00;4.57;;;;;;;21.33;64.08;100448.41;5034065;28;20526;-73
2022/08/24 01:19:36;;;;;;;5.77;5.20;;;;;;;21.28;65.11;100441.59;5032443;28;20450;-71
2022/08/24 01:22:15;;;;;;;5.10;4.60;;;;;;;21.17;65.61;100451.66;5032625;28;20462;-70
2022/08/24 01:24:44;;;;;;;7.13;5.37;;;;;;;21.11;65.90;100454.06;5033623;28;20491;-71
2022/08/24 01:27:12;;;;;;;5.90;5.30;;;;;;;21.06;65.74;100448.13;5030459;28;20461;-69
2022/08/24 01:29:40;;;;;;;5.93;4.97;;;;;;;20.99;66.05;100454.16;5031738;28;20518;-69
2022/08/24 01:32:07;;;;;;;5.87;5.17;;;;;;;20.95;66.68;100454.56;5032309;28;20988;-72
2022/08/24 01:34:35;;;;;;;6.17;4.60;;;;;;;20.98;66.77;100455.16;5031469;28;20472;-70
2022/08/24 01:37:02;;;;;;;6.73;5.27;;;;;;;20.97;67.10;100458.03;5031990;28;20456;-70
2022/08/24 01:39:32;;;;;;;5.07;4.60;;;;;;;20.87;67.31;100460.72;5032679;28;20439;-70
2022/08/24 01:42:00;;;;;;;5.70;5.20;;;;;;;20.88;67.82;100462.44;5031759;28;20457;-70
2022/08/24 01:44:29;;;;;;;5.93;4.90;;;;;;;20.81;67.88;100463.97;5031668;28;20484;-70
2022/08/24 01:46:57;;;;;;;5.63;5.13;;;;;;;20.83;68.00;100467.47;5033680;28;21004;-69
2022/08/24 01:49:26;;;;;;;5.03;4.50;;;;;;;20.81;68.19;100464.84;5032069;28;20457;-71
2022/08/24 01:51:53;;;;;;;11.23;5.83;;;;;;;20.87;67.64;100473.50;5032613;28;20966;-69
2022/08/24 01:54:19;;;;;;;5.30;4.80;;;;;;;20.78;68.50;100469.69;5032437;28;20476;-71
2022/08/24 01:56:46;;;;;;;4.70;4.20;;;;;;;20.84;67.87;100469.16;5032539;28;20622;-69
2022/08/24 01:59:14;;;;;;;8.90;4.40;;;;;;;20.80;68.42;100465.84;5032130;28;20461;-71
2022/08/24 02:01:44;;;;;;;7.20;4.50;;;;;;;20.79;68.95;100475.06;5031402;28;20467;-70
2022/08/24 02:04:11;;;;;;;4.73;4.33;;;;;;;20.76;68.96;100472.59;5031352;28;20480;-69
2022/08/24 02:06:38;;;;;;;4.57;4.17;;;;;;;20.72;69.34;100470.25;5032060;28;20460;-70
2022/08/24 02:09:05;;;;;;;6.40;4.63;;;;;;;20.66;69.88;100471.63;5031467;28;20970;-71
2022/08/24 02:11:33;;;;;;;6.37;4.23;;;;;;;20.63;69.88;100474.66;5031383;28;20463;-71
2022/08/24 02:13:59;;;;;;;5.80;3.93;;;;;;;20.64;70.10;100467.31;5030439;28;20476;-71
2022/08/24 02:16:27;;;;;;;6.10;4.27;;;;;;;20.66;70.07;100468.91;5030469;28;20619;-69
2022/08/24 02:18:55;;;;;;;4.93;4.50;;;;;;;20.65;69.87;100477.28;5037235;28;20448;-73
2022/08/24 02:21:21;;;;;;;5.00;4.50;;;;;;;20.57;70.75;100467.84;5035310;28;21019;-71
2022/08/24 02:23:48;;;;;;;6.37;4.83;;;;;;;20.54;70.69;100468.06;5030029;28;20487;-70
2022/08/24 02:26:15;;;;;;;6.03;4.10;;;;;;;20.58;71.07;100474.19;5031061;28;20949;-72
2022/08/24 02:28:42;;;;;;;5.93;4.70;;;;;;;20.53;71.58;100471.81;5030581;28;20456;-72
2022/08/24 02:31:14;;;;;;;4.23;3.87;;;;;;;20.44;72.07;100469.84;5031327;28;20491;-68
2022/08/24 02:33:42;;;;;;;5.40;4.40;;;;;;;20.44;72.53;100467.13;5029234;28;21025;-70
2022/08/24 02:36:11;;;;;;;4.53;3.80;;;;;;;20.52;72.26;100467.34;5031697;28;20456;-71
2022/08/24 02:38:38;;;;;;;4.30;3.90;;;;;;;20.45;72.88;100471.59;5025689;28;20467;-73
2022/08/24 02:41:05;;;;;;;5.20;4.33;;;;;;;20.47;72.59;100466.00;5031402;28;20464;-71
2022/08/24 02:43:32;;;;;;;7.23;3.97;;;;;;;20.53;72.66;100465.47;5030616;28;20542;-72
2022/08/24 02:45:59;;;;;;;4.40;3.93;;;;;;;20.59;72.37;100467.72;5031369;28;20480;-73
2022/08/24 02:48:25;;;;;;;4.47;4.07;;;;;;;20.61;72.76;100466.56;5028452;28;20464;-72
2022/08/24 02:50:53;;;;;;;4.20;3.80;;;;;;;20.54;73.11;100479.00;5029726;28;20457;-72
2022/08/24 02:53:22;;;;;;;5.53;3.70;;;;;;;20.56;72.88;100468.84;5030581;28;20452;-70
2022/08/24 02:55:48;;;;;;;4.60;3.73;;;;;;;20.56;73.41;100474.31;5030260;28;20490;-70
2022/08/24 02:58:15;;;;;;;5.75;3.47;;;;;;;20.68;73.02;100477.00;5027830;28;20460;-70
2022/08/24 03:00:44;;;;;;;4.83;4.17;;;;;;;20.75;72.79;100472.72;5030465;28;20209;-69
2022/08/24 03:03:11;;;;;;;4.83;3.70;;;;;;;20.78;72.51;100478.81;5030892;28;20463;-71
2022/08/24 03:05:38;;;;;;;4.30;3.90;;;;;;;20.76;73.00;100479.94;5030887;28;20488;-69
2022/08/24 03:08:06;;;;;;;3.83;3.47;;;;;;;20.73;73.38;100482.94;5029421;28;20456;-70
2022/08/24 03:10:33;;;;;;;4.27;3.50;;;;;;;20.73;73.51;100482.94;5033647;28;20464;-70
2022/08/24 03:13:00;;;;;;;13.03;4.33;;;;;;;20.66;74.22;100481.72;5038401;28;20459;-70
2022/08/24 03:15:54;;;;;;;4.60;4.20;;;;;;;20.60;74.68;100480.41;5033061;28;20477;-69
2022/08/24 03:18:20;;;;;;;5.73;3.30;;;;;;;20.60;74.59;100486.75;5042029;28;20483;-69
2022/08/24 03:20:47;;;;;;;4.50;4.03;;;;;;;20.61;74.73;100488.47;5044945;28;20456;-70
2022/08/24 03:23:16;;;;;;;3.80;3.40;;;;;;;20.58;74.97;100487.88;5047617;28;20479;-70
2022/08/24 03:25:43;;;;;;;4.50;3.93;;;;;;;20.61;75.06;100482.13;5049835;28;20499;-72
2022/08/24 03:28:10;;;;;;;6.13;3.80;;;;;;;20.59;75.03;100478.66;5045629;28;20471;-70
2022/08/24 03:30:49;;;;;;;4.17;3.77;;;;;;;20.55;75.57;100480.72;5046266;28;20483;-70
2022/08/24 03:33:16;;;;;;;4.50;4.00;;;;;;;20.57;75.65;100480.66;5037746;28;20535;-72
2022/08/24 03:35:43;;;;;;;4.37;3.97;;;;;;;20.61;76.11;100482.13;5040254;28;20472;-72
2022/08/24 03:38:09;;;;;;;5.23;3.90;;;;;;;20.50;76.70;100474.81;5038826;28;20976;-71
2022/08/24 03:40:37;;;;;;;5.93;4.20;;;;;;;20.45;77.01;100477.06;5038012;28;20492;-71
2022/08/24 03:43:04;;;;;;;5.57;4.07;;;;;;;20.38;77.93;100475.88;5037510;28;20483;-69
2022/08/24 03:45:30;;;;;;;5.83;3.50;;;;;;;20.27;79.06;100475.91;5032051;28;20491;-71
2022/08/24 03:47:58;;;;;;;4.07;3.67;;;;;;;20.26;78.93;100468.69;5035222;28;20499;-72
2022/08/24 03:50:25;;;;;;;4.33;3.80;;;;;;;20.32;78.89;100470.91;5036491;28;20445;-70
2022/08/24 03:52:53;;;;;;;4.77;4.30;;;;;;;20.27;79.24;100468.56;5031295;28;20995;-71
2022/08/24 03:55:20;;;;;;;4.40;4.00;;;;;;;20.26;79.57;100468.69;5031050;28;20472;-71
2022/08/24 03:57:48;;;;;;;6.67;4.10;;;;;;;20.25;80.50;100467.84;5036780;28;20460;-71
2022/08/24 04:00:15;;;;;;;5.00;4.60;;;;;;;20.16;81.12;100474.06;5040641;28;20464;-70
2022/08/24 04:02:43;;;;;;;4.83;4.20;;;;;;;20.14;81.25;100478.81;5038941;28;20452;-70
2022/08/24 04:05:11;;;;;;;4.70;4.30;;;;;;;20.15;81.91;100477.81;5036681;28;20484;-71
2022/08/24 04:07:37;;;;;;;5.40;3.93;;;;;;;20.12;81.86;100481.66;5035097;28;20467;-72
2022/08/24 04:10:04;;;;;;;4.07;3.77;;;;;;;20.14;81.79;100481.53;5033909;28;20460;-70
2022/08/24 04:12:31;;;;;;;4.33;3.93;;;;;;;20.23;81.25;100480.75;5034522;28;20456;-72
2022/08/24 04:14:59;;;;;;;7.27;4.33;;;;;;;20.16;81.27;100477.69;5034165;28;20487;-71
2022/08/24 04:17:25;;;;;;;5.77;4.40;;;;;;;20.13;81.65;100480.69;5034202;28;20457;-70
2022/08/24 04:19:58;;;;;;;4.50;3.57;;;;;;;20.15;81.84;100478.69;5034124;28;20437;-71
2022/08/24 04:22:25;;;;;;;6.50;4.13;;;;;;;20.16;81.54;100477.69;5033009;28;20453;-71
2022/08/24 04:24:51;;;;;;;7.33;4.40;;;;;;;20.17;81.25;100478.53;5064505;22;20982;-73
2022/08/24 04:27:18;;;;;;;6.10;3.90;;;;;;;20.07;81.97;100475.72;5096214;28;20905;-73
2022/08/24 04:29:45;;;;;;;5.37;4.27;;;;;;;20.11;81.67;100479.06;5095657;28;20528;-73
2022/08/24 04:32:14;;;;;;;6.97;4.40;;;;;;;20.17;81.37;100484.00;5094931;28;20451;-72
2022/08/24 04:34:41;;;;;;;16.33;13.90;;;;;;;20.16;81.26;100485.88;5090045;28;20486;-74
2022/08/24 04:37:08;;;;;;;13.10;11.67;;;;;;;20.15;81.81;100484.16;5080018;28;20454;-72
2022/08/24 04:39:34;;;;;;;7.00;5.13;;;;;;;20.16;81.90;100493.22;5083732;28;20491;-72
2022/08/24 04:42:01;;;;;;;5.80;4.20;;;;;;;20.16;81.86;100483.13;5082459;28;20546;-74
2022/08/24 04:44:28;;;;;;;8.93;4.53;;;;;;;20.16;81.77;100496.81;5087185;28;20486;-73
2022/08/24 04:46:55;;;;;;;6.03;4.10;;;;;;;20.17;81.94;100498.56;5076179;28;20474;-73
2022/08/24 04:49:23;;;;;;;8.60;4.60;;;;;;;20.16;81.86;100499.56;5075993;28;20522;-73
2022/08/24 04:51:50;;;;;;;7.53;4.63;;;;;;;20.19;81.83;100502.03;5077077;28;20435;-74
2022/08/24 04:54:16;;;;;;;5.33;4.30;;;;;;;20.11;82.57;100503.69;5076633;28;20470;-72
2022/08/24 04:56:43;;;;;;;5.23;4.50;;;;;;;20.18;82.53;100504.91;5078640;28;20438;-72
2022/08/24 04:59:09;;;;;;;7.03;4.47;;;;;;;20.17;82.65;100505.88;5076185;28;20466;-72
2022/08/24 05:01:36;;;;;;;5.63;4.10;;;;;;;20.18;82.75;100513.97;5056733;28;20474;-74
2022/08/24 05:04:04;;;;;;;7.40;5.00;;;;;;;20.37;81.31;100510.56;5070120;28;20531;-74
2022/08/24 05:06:33;;;;;;;6.90;5.03;;;;;;;20.49;80.69;100511.38;5076167;28;20491;-72
2022/08/24 05:09:01;;;;;;;6.53;4.40;;;;;;;20.46;81.40;100516.22;5076497;28;20445;-74
2022/08/24 05:11:28;;;;;;;8.93;4.90;;;;;;;20.48;81.48;100516.97;5056539;28;20482;-73
2022/08/24 05:13:56;;;;;;;11.83;5.47;;;;;;;20.58;80.70;100513.34;5056713;28;20446;-73
2022/08/24 05:16:24;;;;;;;9.77;5.00;;;;;;;20.72;79.51;100516.78;5073634;28;20455;-72
2022/08/24 05:18:51;;;;;;;10.70;3.97;;;;;;;20.82;78.85;100514.97;5084855;28;20493;-71
2022/08/24 05:21:20;;;;;;;14.43;6.10;;;;;;;20.83;78.73;100522.19;5074738;28;20455;-73
2022/08/24 05:23:48;;;;;;;8.77;6.03;;;;;;;21.00;78.02;100524.31;5082432;28;20439;-72
2022/08/24 05:26:17;;;;;;;10.83;4.50;;;;;;;21.12;77.11;100521.50;5074550;28;21030;-73
2022/08/24 05:28:44;;;;;;;7.03;4.37;;;;;;;21.29;75.84;100517.28;5080421;28;20454;-74
2022/08/24 05:31:13;;;;;;;8.17;4.30;;;;;;;21.38;75.23;100520.06;5077174;28;20549;-72
2022/08/24 05:33:41;;;;;;;6.90;4.30;;;;;;;21.50;74.06;100520.88;5078166;28;20461;-72
2022/08/24 05:36:16;;;;;;;8.30;4.30;;;;;;;21.68;72.91;100521.09;5080370;28;20475;-73
2022/08/24 05:38:43;;;;;;;9.10;4.63;;;;;;;21.77;72.47;100517.53;5067499;28;20778;-72
2022/08/24 05:41:11;;;;;;;7.50;4.27;;;;;;;21.90;71.51;100527.38;5077755;28;20455;-74
2022/08/24 05:43:38;;;;;;;11.00;3.80;;;;;;;22.00;70.87;100526.41;5077157;28;20982;-74
2022/08/24 05:46:05;;;;;;;8.37;4.20;;;;;;;22.09;70.46;100532.91;5085782;28;20486;-73
2022/08/24 05:48:31;;;;;;;4.83;3.70;;;;;;;22.18;69.48;100539.41;5075747;28;20461;-72
2022/08/24 05:50:59;;;;;;;6.27;3.73;;;;;;;22.34;68.67;100534.31;5077330;28;20892;-72
2022/08/24 05:53:25;;;;;;;9.23;4.00;;;;;;;22.44;68.10;100535.16;5075840;28;20443;-73
2022/08/24 05:55:53;;;;;;;7.83;4.33;;;;;;;22.54;67.46;100537.91;5075045;28;20478;-74
2022/08/24 05:58:21;;;;;;;7.13;3.60;;;;;;;22.60;67.52;100541.97;5077732;28;20451;-73
2022/08/24 06:00:49;;;;;;;20.33;15.67;;;;;;;22.69;66.66;100541.09;5091823;28;20457;-72
2022/08/24 06:03:16;;;;;;;17.37;6.30;;;;;;;22.71;66.93;100538.22;5086778;28;20463;-73
2022/08/24 06:05:44;;;;;;;6.40;4.20;;;;;;;22.78;66.41;100548.47;5084719;28;20499;-73
2022/08/24 06:08:11;;;;;;;12.37;4.30;;;;;;;22.79;65.95;100543.84;5088950;28;20471;-73
2022/08/24 06:10:42;;;;;;;7.23;3.90;;;;;;;22.86;65.85;100539.50;5089597;28;20439;-72
2022/08/24 06:13:09;;;;;;;5.03;3.40;;;;;;;22.87;66.06;100547.59;5092367;28;20854;-72
2022/08/24 06:15:38;;;;;;;4.63;3.80;;;;;;;22.87;65.94;100549.47;5094450;28;20470;-74
2022/08/24 06:18:06;;;;;;;4.90;3.83;;;;;;;22.89;66.18;100545.56;5088739;28;20481;-71
2022/08/24 06:20:34;;;;;;;4.90;4.00;;;;;;;22.94;65.71;100547.88;5085916;28;20988;-73
2022/08/24 06:23:00;;;;;;;6.10;3.70;;;;;;;22.94;65.77;100538.78;5089711;28;20474;-72
2022/08/24 06:28:11;;;;;;;5.73;4.13;;;;;;;23.06;65.47;100549.47;5082825;28;20455;-72
2022/08/24 06:30:39;;;;;;;7.03;3.70;;;;;;;23.12;64.90;100545.28;5094732;28;20937;-72
2022/08/24 06:33:06;;;;;;;6.63;3.40;;;;;;;23.27;64.40;100548.44;5092123;28;20545;-71
2022/08/24 06:35:32;;;;;;;6.90;3.70;;;;;;;23.32;64.04;100551.63;5093901;28;20509;-73
2022/08/24 06:37:59;;;;;;;8.10;3.87;;;;;;;23.36;64.03;100553.06;5086613;28;20439;-72
2022/08/24 06:40:26;;;;;;;6.63;3.83;;;;;;;23.56;63.48;100555.72;5082395;28;20968;-71
2022/08/24 06:42:56;;;;;;;6.27;3.83;;;;;;;23.85;68.48;100562.00;5086062;28;20442;-74
2022/08/24 06:45:22;;;;;;;8.20;4.07;;;;;;;24.14;61.65;100559.09;5091576;28;20482;-74
2022/08/24 06:47:50;;;;;;;6.93;4.43;;;;;;;24.26;60.49;100546.03;5070846;28;20506;-74
2022/08/24 06:50:17;;;;;;;7.83;3.80;;;;;;;24.35;59.49;100550.59;5068394;28;20436;-74
2022/08/24 06:52:44;;;;;;;5.17;3.40;;;;;;;24.24;60.31;100559.06;5087606;28;20510;-74
2022/08/24 06:55:11;;;;;;;8.60;4.17;;;;;;;24.23;60.13;100550.94;5089697;28;20507;-73
2022/08/24 06:57:37;;;;;;;5.30;3.70;;;;;;;24.50;59.97;100550.94;5088960;28;20441;-74
2022/08/24 07:00:06;;;;;;;5.10;3.30;;;;;;;24.71;58.83;100556.13;5090876;28;20454;-73
2022/08/24 07:02:33;;;;;;;4.03;3.63;;;;;;;24.92;57.25;100557.72;5073504;28;20458;-71
2022/08/24 07:05:01;;;;;;;6.20;3.83;;;;;;;25.02;57.25;100558.47;5103137;28;20508;-71
2022/08/24 07:07:28;;;;;;;5.73;4.10;;;;;;;25.26;55.96;100559.69;5086065;28;20482;-71
2022/08/24 07:09:55;;;;;;;4.87;3.60;;;;;;;25.47;55.30;100553.84;5085217;28;20437;-73
2022/08/24 07:12:22;;;;;;;4.10;3.10;;;;;;;25.69;54.76;100555.16;5092250;28;20491;-77
2022/08/24 07:14:50;;;;;;;3.50;3.20;;;;;;;25.89;53.99;100561.31;5085686;28;20466;-76
2022/08/24 07:17:16;;;;;;;6.90;3.17;;;;;;;26.02;52.83;100566.38;5072701;28;20413;-75
2022/08/24 07:19:44;;;;;;;5.40;3.60;;;;;;;26.27;52.75;100559.06;5073541;28;20435;-76
2022/08/24 07:22:13;;;;;;;5.23;3.10;;;;;;;26.61;51.61;100561.75;5074490;28;20475;-76
2022/08/24 07:24:40;;;;;;;3.10;2.80;;;;;;;26.72;50.44;100564.19;5073493;28;20464;-76
2022/08/24 07:27:07;;;;;;;5.00;3.13;;;;;;;27.00;49.89;100566.63;5074136;28;20634;-74
2022/08/24 07:29:33;;;;;;;5.77;2.83;;;;;;;26.87;49.98;100577.34;5077270;28;20447;-74
2022/08/24 07:32:00;;;;;;;2.60;2.40;;;;;;;27.03;49.57;100572.69;5096666;28;20493;-74
2022/08/24 07:34:27;;;;;;;4.40;3.10;;;;;;;27.10;49.33;100572.00;5091690;28;20510;-73
2022/08/24 07:36:53;;;;;;;3.83;2.97;;;;;;;27.27;48.85;100567.34;5089929;28;21001;-74
2022/08/24 07:39:21;;;;;;;3.77;3.30;;;;;;;27.62;48.04;100578.00;5096297;28;20446;-75
2022/08/24 07:41:48;;;;;;;7.43;3.27;;;;;;;28.11;46.86;100571.47;5096906;28;20442;-74
2022/08/24 07:44:14;;;;;;;4.63;3.30;;;;;;;28.30;45.99;100569.31;5095319;28;20533;-74
2022/08/24 07:46:41;;;;;;;3.10;2.80;;;;;;;28.55;45.72;100570.06;5089247;28;20558;-74
2022/08/24 07:49:09;;;;;;;3.60;2.80;;;;;;;28.80;44.87;100571.59;5072368;28;20475;-74
2022/08/24 07:51:36;;;;;;;2.97;2.67;;;;;;;28.97;44.62;100566.81;5070457;28;20538;-74
2022/08/24 07:54:03;;;;;;;3.57;2.77;;;;;;;28.95;44.28;100577.22;5074664;28;20452;-74
2022/08/24 07:56:31;;;;;;;5.23;2.13;;;;;;;29.55;43.14;100577.38;5077241;28;20440;-74
2022/08/24 07:58:59;;;;;;;3.73;3.10;;;;;;;29.64;42.78;100570.69;5070743;28;20443;-74
2022/08/24 08:01:26;;;;;;;3.93;2.70;;;;;;;30.12;42.15;100583.19;5085044;28;20436;-74
2022/08/24 08:03:53;;;;;;;3.53;2.97;;;;;;;30.61;40.70;100580.81;5072083;28;20800;-75
2022/08/24 08:06:19;;;;;;;2.60;2.40;;;;;;;30.88;40.08;100593.09;5061154;28;20452;-75
2022/08/24 08:08:46;;;;;;;3.10;2.77;;;;;;;30.69;40.13;100594.59;5068029;28;20626;-75
2022/08/24 08:11:13;;;;;;;3.10;2.80;;;;;;;30.66;40.29;100589.41;5072303;28;20496;-73
2022/08/24 08:13:41;;;;;;;5.30;2.60;;;;;;;30.86;39.67;100601.63;5071482;28;20474;-74
2022/08/24 08:16:07;;;;;;;7.00;2.77;;;;;;;30.66;40.34;100603.31;5071180;28;20523;-76
2022/08/24 08:18:34;;;;;;;4.20;2.70;;;;;;;30.41;40.27;100598.09;5052840;28;20463;-74
2022/08/24 08:21:02;;;;;;;3.50;2.57;;;;;;;30.34;40.03;100597.16;5050959;28;20463;-76
2022/08/24 08:26:15;;;;;;;2.60;2.40;;;;;;;30.45;40.51;100593.88;5033483;28;1087665;-74
2022/08/24 08:28:43;;;;;;;6.70;2.40;;;;;;;30.34;41.07;100599.94;5070336;28;20209;-75
2022/08/24 08:31:10;;;;;;;5.27;3.13;;;;;;;30.18;40.50;100594.56;5076847;28;20440;-75
2022/08/24 08:33:36;;;;;;;4.20;2.70;;;;;;;30.48;40.15;100599.06;5084466;28;20506;-76
2022/08/24 08:36:07;;;;;;;7.10;3.53;;;;;;;31.18;39.33;100588.25;5090813;28;20450;-75
2022/08/24 08:38:34;;;;;;;8.70;3.00;;;;;;;31.85;37.98;100589.66;5049507;28;20518;-74
2022/08/24 08:41:16;;;;;;;6.03;2.50;;;;;;;32.44;37.42;100595.78;5072439;28;20507;-73
2022/08/24 08:43:47;;;;;;;2.70;2.43;;;;;;;33.08;36.15;100591.69;5070904;28;20417;-74
2022/08/24 08:46:26;;;;;;;4.13;2.60;;;;;;;33.80;35.07;100598.34;5079880;28;20507;-75
2022/08/24 08:49:12;;;;;;;10.10;3.07;;;;;;;33.29;35.13;100591.50;5093655;28;20757;-72
2022/08/24 08:52:17;;;;;;;2.83;2.30;;;;;;;32.49;36.05;100594.06;4980078;28;20511;-73
2022/08/24 08:54:54;;;;;;;2.93;2.60;;;;;;;32.62;35.44;100587.72;4979977;28;20479;-76
2022/08/24 08:57:37;;;;;;;2.70;2.50;;;;;;;32.69;35.43;100596.94;4979631;28;20455;-75
2022/08/24 09:00:12;;;;;;;2.67;2.40;;;;;;;32.84;35.51;100599.56;4978637;28;20448;-75
2022/08/24 09:02:56;;;;;;;3.57;2.20;;;;;;;33.43;35.17;100606.31;4978841;28;20444;-76
2022/08/24 09:05:48;;;;;;;2.43;2.23;;;;;;;33.89;34.00;100593.41;4978796;28;20475;-76
2022/08/24 09:08:26;;;;;;;2.60;2.30;;;;;;;33.96;33.42;100594.22;4974119;28;20519;-74
2022/08/24 09:11:01;;;;;;;2.57;2.37;;;;;;;34.82;32.37;100602.28;4969724;29;20456;-75
2022/08/24 09:13:56;;;;;;;3.33;2.30;;;;;;;35.09;31.91;100594.56;4973065;28;20499;-75
2022/08/24 09:16:41;;;;;;;2.10;1.90;;;;;;;34.85;31.42;100606.59;4973982;28;20451;-75
2022/08/24 09:19:26;;;;;;;5.40;2.70;;;;;;;35.24;31.71;100594.28;4985576;28;20442;-74
2022/08/24 09:22:09;;;;;;;5.67;2.60;;;;;;;35.91;30.47;100591.75;4986771;28;20443;-70
2022/08/24 09:25:02;;;;;;;4.00;2.00;;;;;;;35.73;30.63;100585.25;4981095;28;20570;-75
2022/08/24 09:27:40;;;;;;;7.47;2.17;;;;;;;36.70;29.74;100586.28;4969128;29;20472;-75
2022/08/24 09:30:11;;;;;;;5.60;2.37;;;;;;;37.09;29.04;100589.63;5068461;28;20466;-74
2022/08/24 09:32:54;;;;;;;5.03;2.13;;;;;;;37.70;28.63;100595.09;5062741;28;20488;-74
2022/08/24 09:35:32;;;;;;;3.60;1.90;;;;;;;38.07;28.16;100590.06;5058383;28;20473;-76
2022/08/24 09:38:01;;;;;;;2.10;1.90;;;;;;;38.70;27.17;100593.94;5058979;28;20957;-74
2022/08/24 09:40:36;;;;;;;2.80;2.17;;;;;;;38.07;27.87;100590.06;5064743;28;20503;-75
2022/08/24 09:43:34;;;;;;;2.47;1.80;;;;;;;38.41;27.67;100595.84;5065606;28;20451;-75
2022/08/24 09:46:45;;;;;;;4.07;2.50;;;;;;;38.89;27.02;100602.16;5063639;28;20483;-75
2022/08/24 09:49:51;;;;;;;3.30;2.43;;;;;;;39.36;25.96;100601.91;5067125;28;20462;-76
2022/08/24 09:52:38;;;;;;;2.60;2.20;;;;;;;39.41;26.27;100587.94;5086688;28;20485;-76
2022/08/24 09:55:35;;;;;;;2.30;2.10;;;;;;;39.95;26.31;100593.03;5068958;28;20459;-75
2022/08/24 09:58:15;;;;;;;2.33;1.80;;;;;;;40.11;25.68;100596.91;5054893;28;20935;-75
2022/08/24 10:00:47;;;;;;;5.00;2.53;;;;;;;40.13;26.03;100594.69;5060824;28;20445;-75
2022/08/24 10:03:27;;;;;;;5.97;2.37;;;;;;;40.17;25.82;100584.59;5065401;28;20459;-76
2022/08/24 10:06:09;;;;;;;2.00;1.80;;;;;;;40.31;25.68;100591.56;5054752;28;20480;-74
2022/08/24 10:09:02;;;;;;;2.73;2.10;;;;;;;40.77;25.16;100591.28;5061591;28;20479;-75
2022/08/24 10:11:42;;;;;;;3.80;2.20;;;;;;;41.22;24.62;100582.41;5070087;28;20443;-75
2022/08/24 10:14:17;;;;;;;5.17;2.40;;;;;;;41.29;24.89;100578.53;5059093;28;20458;-74
2022/08/24 10:16:55;;;;;;;4.53;2.20;;;;;;;41.58;24.96;100571.44;5056490;28;20439;-74
2022/08/24 10:19:45;;;;;;;13.73;2.77;;;;;;;41.72;24.77;100576.59;5067301;28;20530;-72
2022/08/24 10:22:20;;;;;;;5.00;2.43;;;;;;;42.21;23.79;100579.16;5075081;28;20431;-76
2022/08/24 10:25:02;;;;;;;5.83;2.50;;;;;;;42.43;23.98;100571.38;5061263;28;20483;-74
2022/08/24 10:27:49;;;;;;;6.07;2.40;;;;;;;42.90;23.37;100570.38;5066547;28;20520;-74
2022/08/24 10:30:47;;;;;;;3.57;2.20;;;;;;;42.45;23.31;100563.44;5065954;28;20535;-74
2022/08/24 10:33:20;;;;;;;8.47;2.27;;;;;;;42.97;23.07;100566.38;5052949;28;20498;-71
2022/08/24 10:36:08;;;;;;;6.50;2.37;;;;;;;43.47;22.88;100567.56;5053033;28;20479;-72
2022/08/24 10:45:27;;;;;;;3.80;1.80;;;;;;;42.76;22.77;100563.50;4990543;28;20454;-77
2022/08/24 10:48:13;;;;;;;6.40;2.33;;;;;;;42.76;23.27;100563.50;4972611;28;20578;-74
2022/08/24 10:50:53;;;;;;;4.57;2.70;;;;;;;42.29;23.53;100561.69;4976732;28;20451;-73
2022/08/24 10:53:24;;;;;;;7.77;2.80;;;;;;;42.03;24.12;100558.72;4987117;28;20533;-74
2022/08/24 10:56:08;;;;;;;3.03;2.23;;;;;;;41.19;24.50;100554.72;4984095;28;20482;-74
2022/08/24 10:58:58;;;;;;;2.47;2.00;;;;;;;40.60;25.04;100546.19;4983281;28;20514;-74
2022/08/24 11:01:30;;;;;;;3.40;2.27;;;;;;;40.26;24.96;100551.13;4972124;28;20455;-73
2022/08/24 11:04:01;;;;;;;5.00;2.40;;;;;;;39.70;25.70;100548.38;4970888;28;20465;-74
2022/08/24 11:06:31;;;;;;;4.27;2.77;;;;;;;39.76;25.83;100544.53;4967607;28;20465;-73
2022/08/24 11:09:03;;;;;;;3.50;2.73;;;;;;;40.23;25.79;100546.84;4995067;28;20466;-73
2022/08/24 11:11:32;;;;;;;3.90;2.30;;;;;;;40.46;25.41;100551.41;4988038;28;20498;-73
2022/08/24 11:14:03;;;;;;;4.27;3.87;;;;;;;40.37;25.50;100550.16;4984511;28;20478;-74
2022/08/24 11:16:34;;;;;;;5.47;3.47;;;;;;;40.74;24.73;100555.13;4986584;28;20509;-74
2022/08/24 11:19:03;;;;;;;4.70;2.53;;;;;;;40.84;24.52;100547.59;4978105;28;20538;-74
2022/08/24 11:21:40;;;;;;;2.40;2.10;;;;;;;40.92;24.47;100534.13;5065702;28;20469;-74
2022/08/24 11:24:10;;;;;;;4.53;2.20;;;;;;;40.40;24.22;100541.16;5060832;28;20437;-73
2022/08/24 11:26:50;;;;;;;3.23;2.40;;;;;;;39.36;24.34;100534.31;5056751;28;20815;-73
2022/08/24 11:29:18;;;;;;;3.17;2.10;;;;;;;39.11;25.19;100532.78;5061235;28;20462;-73
2022/08/24 11:31:49;;;;;;;6.97;2.97;;;;;;;38.72;25.76;100531.78;5064424;28;20440;-73
2022/08/24 11:34:19;;;;;;;2.90;2.43;;;;;;;38.15;26.04;100526.94;5064678;28;20466;-74
2022/08/24 11:36:46;;;;;;;8.40;2.87;;;;;;;37.95;26.76;100522.59;5069305;28;20440;-73
2022/08/24 11:39:19;;;;;;;9.70;2.50;;;;;;;37.61;26.76;100524.38;5059553;28;20471;-72
2022/08/24 11:41:55;;;;;;;3.67;2.20;;;;;;;37.44;25.65;100517.72;5037149;28;20542;-73
2022/08/24 11:44:37;;;;;;;41.90;13.57;;;;;;;37.34;26.68;100524.81;5063743;28;20572;-73
2022/08/24 11:47:16;;;;;;;28.13;7.70;;;;;;;37.46;25.93;100521.16;5063628;28;20437;-73
2022/08/24 11:49:50;;;;;;;3.97;2.97;;;;;;;36.91;25.72;100509.13;5061971;28;20455;-74
2022/08/24 11:52:30;;;;;;;14.03;4.10;;;;;;;36.56;26.23;100520.22;5053563;28;20446;-75
2022/08/24 11:55:05;;;;;;;13.90;5.30;;;;;;;36.78;25.61;100509.34;5055109;28;20850;-75
2022/08/24 11:57:39;;;;;;;59.37;16.37;;;;;;;36.98;26.94;100509.00;5064295;28;20572;-74